Time;durP1;ratioP1;P1;durP2;ratioP2;P2;SDS_P1;SDS_P2;PMS_P1;PMS_P2;Temp;Humidity;BMP_temperature;BMP_pressure;BME280_temperature;BME280_humidity;BME280_pressure;Samples;Min_cycle;Max_cycle;Signal;HPM_P1;HPM_P2
2022/02/12 00:02:11;;;;;;;0.50;0.50;;;;;;;;;;4987424;28;20417;-60
2022/02/12 00:04:37;;;;;;;0.60;0.60;;;;;;;;;;5003440;28;20746;-60
2022/02/12 00:07:03;;;;;;;0.50;0.50;;;;;;;;;;5004723;28;20241;-60
2022/02/12 00:09:29;;;;;;;0.57;0.57;;;;;;;;;;5004349;28;20500;-60
2022/02/12 00:11:58;;;;;;;0.50;0.50;;;;;;;;;;5004545;28;20209;-60
2022/02/12 00:14:24;;;;;;;0.60;0.60;;;;;;;;;;5005055;28;20455;-60
2022/02/12 00:16:50;;;;;;;0.60;0.60;;;;;;;;;;5007229;28;20182;-60
2022/02/12 00:19:16;;;;;;;0.60;0.60;;;;;;;;;;5005860;28;20186;-59
2022/02/12 00:21:42;;;;;;;0.52;0.52;;;;;;;;;;5005518;28;20177;-60
2022/02/12 00:24:07;;;;;;;0.50;0.50;;;;;;;;;;5005452;28;20677;-59
2022/02/12 00:26:34;;;;;;;0.60;0.60;;;;;;;;;;5003629;28;20784;-60
2022/02/12 00:28:59;;;;;;;0.43;0.43;;;;;;;;;;5004771;28;20402;-60
2022/02/12 00:31:25;;;;;;;0.53;0.53;;;;;;;;;;5002728;28;20346;-61
2022/02/12 00:33:52;;;;;;;0.60;0.60;;;;;;;;;;5006881;28;20805;-60
2022/02/12 00:36:18;;;;;;;0.70;0.70;;;;;;;;;;5006859;28;21091;-56
2022/02/12 00:38:44;;;;;;;0.60;0.60;;;;;;;;;;5005285;28;20181;-60
2022/02/12 00:41:10;;;;;;;0.50;0.50;;;;;;;;;;5003219;28;20275;-59
2022/02/12 00:43:37;;;;;;;0.60;0.60;;;;;;;;;;5002658;28;20277;-58
2022/02/12 00:46:03;;;;;;;0.50;0.50;;;;;;;;;;5001986;28;20208;-60
2022/02/12 00:48:30;;;;;;;0.60;0.60;;;;;;;;;;5004940;28;20537;-56
2022/02/12 00:50:59;;;;;;;0.60;0.60;;;;;;;;;;4993156;28;20581;-57
2022/02/12 00:53:25;;;;;;;0.60;0.60;;;;;;;;;;4992938;28;20232;-59
2022/02/12 00:55:51;;;;;;;0.60;0.60;;;;;;;;;;4993156;28;20178;-58
2022/02/12 00:58:17;;;;;;;0.60;0.60;;;;;;;;;;4993053;28;20818;-60
2022/02/12 01:00:43;;;;;;;0.60;0.60;;;;;;;;;;4992800;28;20913;-61
2022/02/12 01:03:09;;;;;;;0.60;0.60;;;;;;;;;;4992904;28;20841;-59
2022/02/12 01:05:35;;;;;;;0.50;0.50;;;;;;;;;;4992995;28;20457;-58
2022/02/12 01:08:03;;;;;;;0.50;0.50;;;;;;;;;;4992281;28;20777;-60
2022/02/12 01:10:29;;;;;;;0.60;0.60;;;;;;;;;;4992466;28;20432;-60
2022/02/12 01:12:55;;;;;;;0.68;0.68;;;;;;;;;;4992767;28;20236;-60
2022/02/12 01:15:21;;;;;;;0.70;0.70;;;;;;;;;;4992843;28;20659;-58
2022/02/12 01:17:47;;;;;;;0.60;0.60;;;;;;;;;;4992740;28;20780;-60
2022/02/12 01:20:13;;;;;;;0.70;0.70;;;;;;;;;;4992425;28;20777;-61
2022/02/12 01:22:39;;;;;;;0.60;0.60;;;;;;;;;;4992500;28;20178;-60
2022/02/12 01:25:06;;;;;;;0.50;0.50;;;;;;;;;;4992716;28;20681;-60
2022/02/12 01:27:32;;;;;;;0.52;0.52;;;;;;;;;;4992591;28;20177;-60
2022/02/12 01:29:57;;;;;;;0.57;0.57;;;;;;;;;;4992571;28;20166;-60
2022/02/12 01:32:23;;;;;;;0.60;0.60;;;;;;;;;;4992310;28;20413;-59
2022/02/12 01:34:49;;;;;;;0.63;0.63;;;;;;;;;;4992188;28;20476;-61
2022/02/12 01:37:15;;;;;;;0.60;0.60;;;;;;;;;;4992379;28;20582;-60
2022/02/12 01:39:41;;;;;;;0.70;0.70;;;;;;;;;;4992426;28;20405;-60
2022/02/12 01:42:07;;;;;;;0.50;0.50;;;;;;;;;;4992093;28;20750;-59
2022/02/12 01:44:37;;;;;;;0.60;0.60;;;;;;;;;;4992215;28;20975;-61
2022/02/12 01:47:04;;;;;;;0.57;0.57;;;;;;;;;;4992394;28;20441;-59
2022/02/12 01:49:31;;;;;;;0.60;0.60;;;;;;;;;;4992063;28;20766;-60
2022/02/12 01:51:57;;;;;;;0.60;0.60;;;;;;;;;;4992124;28;20257;-59
2022/02/12 01:54:24;;;;;;;0.60;0.60;;;;;;;;;;4991463;28;20217;-60
2022/02/12 01:56:50;;;;;;;0.60;0.60;;;;;;;;;;4992260;28;20210;-60
2022/02/12 01:59:16;;;;;;;0.70;0.70;;;;;;;;;;4992257;28;20189;-60
2022/02/12 02:20:06;;;;;;;0.70;0.70;;;;;;;;;;4991527;28;20193;-60
2022/02/12 02:22:52;;;;;;;0.65;0.65;;;;;;;;;;4991852;28;20174;-60
2022/02/12 02:25:18;;;;;;;0.70;0.70;;;;;;;;;;4991737;28;20221;-61
2022/02/12 02:27:45;;;;;;;0.68;0.68;;;;;;;;;;4991899;28;20178;-60
2022/02/12 02:30:12;;;;;;;0.60;0.60;;;;;;;;;;4991674;28;20178;-60
2022/02/12 02:32:39;;;;;;;0.60;0.60;;;;;;;;;;4991924;28;20661;-60
2022/02/12 02:35:06;;;;;;;0.50;0.50;;;;;;;;;;4991808;28;20225;-60
2022/02/12 02:37:31;;;;;;;0.60;0.60;;;;;;;;;;4991818;28;20180;-59
2022/02/12 02:39:57;;;;;;;0.40;0.40;;;;;;;;;;4991805;28;20544;-60
2022/02/12 02:42:23;;;;;;;0.70;0.70;;;;;;;;;;4991550;28;20893;-60
2022/02/12 02:44:49;;;;;;;0.60;0.60;;;;;;;;;;4991692;28;20487;-60
2022/02/12 02:47:36;;;;;;;0.60;0.60;;;;;;;;;;4992492;28;20412;-61
2022/02/12 02:50:02;;;;;;;0.57;0.57;;;;;;;;;;4995359;28;20523;-60
2022/02/12 02:57:58;;;;;;;0.70;0.70;;;;;;;;;;4995274;28;20569;-61
2022/02/12 03:00:24;;;;;;;0.50;0.50;;;;;;;;;;4994940;28;20174;-61
2022/02/12 03:02:50;;;;;;;0.60;0.60;;;;;;;;;;4995079;28;20469;-59
2022/02/12 03:05:16;;;;;;;0.70;0.70;;;;;;;;;;4995068;28;20997;-60
2022/02/12 03:07:42;;;;;;;0.60;0.60;;;;;;;;;;4995118;28;20490;-60
2022/02/12 03:10:08;;;;;;;0.60;0.60;;;;;;;;;;4994744;28;20414;-60
2022/02/12 03:12:34;;;;;;;0.60;0.60;;;;;;;;;;4995008;28;20413;-60
2022/02/12 03:15:00;;;;;;;0.50;0.50;;;;;;;;;;4994832;28;20205;-59
2022/02/12 03:17:26;;;;;;;0.60;0.60;;;;;;;;;;4994880;28;20178;-59
2022/02/12 03:19:52;;;;;;;0.50;0.50;;;;;;;;;;4994747;28;20185;-60
2022/02/12 03:22:18;;;;;;;0.60;0.60;;;;;;;;;;4994641;28;20417;-60
2022/02/12 03:24:44;;;;;;;0.60;0.60;;;;;;;;;;4994665;28;20461;-60
2022/02/12 03:27:10;;;;;;;0.60;0.60;;;;;;;;;;4994741;28;20175;-60
2022/02/12 03:29:36;;;;;;;0.60;0.60;;;;;;;;;;4994583;28;20920;-60
2022/02/12 03:32:02;;;;;;;0.60;0.60;;;;;;;;;;4994662;28;20181;-60
2022/02/12 03:34:28;;;;;;;0.50;0.50;;;;;;;;;;4994569;28;20764;-60
2022/02/12 03:36:54;;;;;;;0.70;0.70;;;;;;;;;;4994594;28;20273;-60
2022/02/12 03:39:20;;;;;;;0.70;0.70;;;;;;;;;;4994513;28;20425;-60
2022/02/12 03:41:45;;;;;;;0.60;0.60;;;;;;;;;;4997495;28;20409;-60
2022/02/12 03:44:11;;;;;;;0.60;0.60;;;;;;;;;;4994537;28;20662;-59
2022/02/12 03:46:37;;;;;;;0.60;0.60;;;;;;;;;;4994533;28;20492;-60
2022/02/12 03:49:05;;;;;;;0.65;0.65;;;;;;;;;;4994353;28;20897;-60
2022/02/12 03:51:31;;;;;;;0.70;0.70;;;;;;;;;;4994083;28;20173;-60
2022/02/12 03:53:57;;;;;;;0.50;0.50;;;;;;;;;;4994046;28;20224;-60
2022/02/12 03:56:23;;;;;;;0.50;0.50;;;;;;;;;;4994166;28;20421;-60
2022/02/12 03:58:49;;;;;;;0.50;0.50;;;;;;;;;;4993894;28;20410;-60
2022/02/12 04:01:15;;;;;;;0.60;0.60;;;;;;;;;;4993892;28;20413;-59
2022/02/12 04:03:42;;;;;;;0.70;0.70;;;;;;;;;;4995813;28;20256;-59
2022/02/12 04:06:08;;;;;;;0.70;0.70;;;;;;;;;;4993954;28;20491;-60
2022/02/12 04:08:34;;;;;;;0.70;0.70;;;;;;;;;;4994003;28;20546;-60
2022/02/12 04:10:59;;;;;;;0.60;0.60;;;;;;;;;;4993754;28;20902;-58
2022/02/12 04:13:25;;;;;;;0.50;0.50;;;;;;;;;;4993678;28;20454;-60
2022/02/12 04:15:51;;;;;;;0.60;0.60;;;;;;;;;;4993879;28;20884;-60
2022/02/12 04:18:17;;;;;;;0.60;0.60;;;;;;;;;;4993795;28;20182;-60
2022/02/12 04:20:43;;;;;;;0.70;0.70;;;;;;;;;;4993513;28;20406;-59
2022/02/12 04:23:10;;;;;;;0.60;0.60;;;;;;;;;;4993695;28;20194;-59
2022/02/12 04:25:36;;;;;;;0.60;0.60;;;;;;;;;;4993545;28;20638;-60
2022/02/12 04:28:05;;;;;;;0.80;0.80;;;;;;;;;;4993520;28;20202;-60
2022/02/12 04:30:31;;;;;;;0.60;0.60;;;;;;;;;;4993219;28;21209;-61
2022/02/12 04:32:57;;;;;;;0.70;0.70;;;;;;;;;;4993488;28;20194;-62
2022/02/12 04:35:23;;;;;;;0.60;0.60;;;;;;;;;;4992525;28;20700;-60
2022/02/12 04:37:49;;;;;;;0.60;0.60;;;;;;;;;;4993480;28;20401;-59
2022/02/12 04:40:15;;;;;;;0.60;0.60;;;;;;;;;;4993026;28;20414;-60
2022/02/12 04:42:41;;;;;;;0.50;0.50;;;;;;;;;;4993310;28;20421;-60
2022/02/12 04:45:07;;;;;;;0.70;0.70;;;;;;;;;;4993160;28;20563;-60
2022/02/12 04:47:33;;;;;;;0.60;0.60;;;;;;;;;;4993354;28;20421;-61
2022/02/12 04:49:59;;;;;;;0.60;0.60;;;;;;;;;;4993097;28;20233;-59
2022/02/12 04:52:25;;;;;;;0.70;0.70;;;;;;;;;;4992952;28;20761;-60
2022/02/12 04:54:51;;;;;;;0.60;0.60;;;;;;;;;;4992810;28;20457;-60
2022/02/12 04:57:18;;;;;;;0.70;0.70;;;;;;;;;;4992973;28;20440;-60
2022/02/12 04:59:44;;;;;;;0.60;0.60;;;;;;;;;;4993047;28;20178;-60
2022/02/12 05:02:10;;;;;;;0.70;0.70;;;;;;;;;;4991518;28;20193;-60
2022/02/12 05:04:36;;;;;;;0.60;0.60;;;;;;;;;;4992807;28;20295;-59
2022/02/12 05:07:02;;;;;;;0.70;0.70;;;;;;;;;;4992910;28;20260;-60
2022/02/12 05:09:31;;;;;;;0.60;0.60;;;;;;;;;;4992573;28;20416;-59
2022/02/12 05:11:57;;;;;;;0.70;0.70;;;;;;;;;;4992496;28;20253;-60
2022/02/12 05:14:24;;;;;;;0.60;0.60;;;;;;;;;;4992783;28;20201;-61
2022/02/12 05:16:50;;;;;;;0.50;0.50;;;;;;;;;;4992746;28;20177;-60
2022/02/12 05:19:16;;;;;;;0.50;0.50;;;;;;;;;;4992728;28;20208;-60
2022/02/12 05:21:42;;;;;;;0.60;0.60;;;;;;;;;;4992524;28;20420;-60
2022/02/12 05:24:08;;;;;;;0.60;0.60;;;;;;;;;;4992256;28;20198;-60
2022/02/12 05:26:34;;;;;;;0.70;0.70;;;;;;;;;;4992555;28;20196;-60
2022/02/12 05:29:00;;;;;;;0.60;0.60;;;;;;;;;;4992409;28;20238;-60
2022/02/12 05:31:26;;;;;;;0.60;0.60;;;;;;;;;;4992268;28;20178;-60
2022/02/12 05:33:52;;;;;;;0.70;0.70;;;;;;;;;;4992360;28;20425;-61
2022/02/12 05:36:18;;;;;;;0.65;0.65;;;;;;;;;;4992442;28;20413;-60
2022/02/12 05:38:44;;;;;;;0.50;0.50;;;;;;;;;;4992328;28;20175;-59
2022/02/12 05:41:11;;;;;;;0.60;0.60;;;;;;;;;;4992097;28;20175;-60
2022/02/12 05:43:38;;;;;;;0.60;0.60;;;;;;;;;;4992335;28;20206;-60
2022/02/12 05:46:04;;;;;;;0.70;0.70;;;;;;;;;;4992418;28;20296;-60
2022/02/12 05:48:31;;;;;;;0.45;0.45;;;;;;;;;;4992143;28;20174;-60
2022/02/12 05:50:57;;;;;;;0.57;0.57;;;;;;;;;;4992015;28;20179;-60
2022/02/12 05:55:51;;;;;;;0.60;0.60;;;;;;;;;;4989752;28;20304;-62
2022/02/12 05:58:18;;;;;;;0.70;0.70;;;;;;;;;;4992105;28;20261;-62
2022/02/12 06:00:44;;;;;;;0.52;0.52;;;;;;;;;;4992146;28;20409;-62
2022/02/12 06:03:10;;;;;;;0.60;0.60;;;;;;;;;;4992070;28;20254;-62
2022/02/12 06:05:36;;;;;;;0.60;0.60;;;;;;;;;;4991933;28;20305;-62
2022/02/12 06:08:04;;;;;;;0.63;0.63;;;;;;;;;;4991924;28;20425;-62
2022/02/12 06:10:31;;;;;;;0.52;0.52;;;;;;;;;;4991785;28;20174;-62
2022/02/12 06:12:57;;;;;;;0.60;0.60;;;;;;;;;;4992068;28;20565;-62
2022/02/12 06:15:23;;;;;;;0.50;0.50;;;;;;;;;;4991936;28;20265;-62
2022/02/12 06:17:49;;;;;;;0.60;0.60;;;;;;;;;;4992051;28;20258;-62
2022/02/12 06:20:15;;;;;;;0.60;0.60;;;;;;;;;;4991658;28;20505;-62
2022/02/12 06:22:41;;;;;;;0.60;0.60;;;;;;;;;;4994767;28;20273;-62
2022/02/12 06:25:07;;;;;;;0.70;0.70;;;;;;;;;;4995821;28;20471;-62
2022/02/12 06:27:33;;;;;;;0.60;0.60;;;;;;;;;;4995668;28;20449;-62
2022/02/12 06:29:59;;;;;;;0.60;0.60;;;;;;;;;;4995627;28;20213;-62
2022/02/12 06:32:26;;;;;;;0.50;0.50;;;;;;;;;;4995927;28;20436;-62
2022/02/12 06:34:58;;;;;;;0.65;0.65;;;;;;;;;;4995596;28;20525;-62
2022/02/12 06:37:24;;;;;;;0.60;0.60;;;;;;;;;;4995429;28;20170;-62
2022/02/12 06:39:49;;;;;;;0.60;0.60;;;;;;;;;;4995630;28;20831;-62
2022/02/12 06:42:15;;;;;;;0.50;0.50;;;;;;;;;;4995481;28;20417;-62
2022/02/12 06:44:42;;;;;;;0.60;0.60;;;;;;;;;;4994547;28;20816;-62
2022/02/12 06:47:08;;;;;;;0.60;0.60;;;;;;;;;;4995097;28;20921;-62
2022/02/12 06:49:34;;;;;;;0.63;0.63;;;;;;;;;;4994973;28;20250;-62
2022/02/12 06:52:00;;;;;;;0.70;0.70;;;;;;;;;;4993736;28;20209;-62
2022/02/12 06:54:26;;;;;;;0.60;0.60;;;;;;;;;;4994787;28;20253;-62
2022/02/12 06:56:52;;;;;;;0.50;0.50;;;;;;;;;;4995131;28;20421;-62
2022/02/12 06:59:18;;;;;;;0.70;0.70;;;;;;;;;;4994999;28;20182;-62
2022/02/12 07:01:44;;;;;;;0.50;0.50;;;;;;;;;;4994667;28;20240;-62
2022/02/12 07:04:10;;;;;;;0.53;0.53;;;;;;;;;;4994790;28;20197;-62
2022/02/12 07:06:36;;;;;;;0.60;0.60;;;;;;;;;;5000105;28;20405;-62
2022/02/12 07:09:04;;;;;;;0.60;0.60;;;;;;;;;;5001092;28;20182;-62
2022/02/12 07:11:30;;;;;;;0.60;0.60;;;;;;;;;;4994418;28;20174;-62
2022/02/12 07:13:56;;;;;;;0.50;0.50;;;;;;;;;;4994703;28;20190;-62
2022/02/12 07:16:22;;;;;;;0.60;0.60;;;;;;;;;;4994289;28;20696;-62
2022/02/12 07:18:49;;;;;;;0.50;0.50;;;;;;;;;;4994639;28;20472;-62
2022/02/12 07:21:15;;;;;;;0.50;0.50;;;;;;;;;;4994302;28;20869;-62
2022/02/12 07:23:41;;;;;;;0.50;0.50;;;;;;;;;;4996309;28;20658;-69
2022/02/12 07:26:08;;;;;;;0.68;0.68;;;;;;;;;;5014144;28;20262;-62
2022/02/12 07:28:34;;;;;;;0.50;0.50;;;;;;;;;;5014018;28;20249;-62
2022/02/12 07:31:00;;;;;;;0.70;0.70;;;;;;;;;;5013795;28;20177;-62
2022/02/12 07:33:26;;;;;;;0.57;0.57;;;;;;;;;;5013274;28;20178;-62
2022/02/12 07:35:55;;;;;;;0.60;0.60;;;;;;;;;;5013744;28;20182;-62
2022/02/12 07:38:21;;;;;;;0.60;0.60;;;;;;;;;;5012173;28;20660;-62
2022/02/12 07:40:47;;;;;;;0.60;0.60;;;;;;;;;;4992906;28;20186;-63
2022/02/12 07:43:13;;;;;;;0.60;0.60;;;;;;;;;;4994872;28;20178;-62
2022/02/12 07:45:39;;;;;;;0.60;0.60;;;;;;;;;;5013290;28;20201;-62
2022/02/12 07:48:05;;;;;;;0.60;0.60;;;;;;;;;;5011367;28;20696;-62
2022/02/12 07:50:31;;;;;;;0.70;0.70;;;;;;;;;;4993992;28;20179;-62
2022/02/12 07:52:57;;;;;;;0.60;0.60;;;;;;;;;;4994196;28;20570;-62
2022/02/12 07:55:23;;;;;;;0.60;0.60;;;;;;;;;;4993696;28;20228;-62
2022/02/12 07:57:49;;;;;;;0.60;0.60;;;;;;;;;;4993041;28;20453;-62
2022/02/12 08:00:17;;;;;;;0.60;0.60;;;;;;;;;;4993543;28;20281;-62
2022/02/12 08:02:43;;;;;;;0.70;0.70;;;;;;;;;;4993591;28;20976;-62
2022/02/12 08:05:09;;;;;;;0.60;0.60;;;;;;;;;;4993630;28;20589;-62
2022/02/12 08:07:37;;;;;;;0.60;0.60;;;;;;;;;;4993711;28;20258;-62
2022/02/12 08:12:54;;;;;;;0.50;0.50;;;;;;;;;;4993728;28;20249;-62
2022/02/12 08:15:20;;;;;;;0.60;0.60;;;;;;;;;;4993265;28;20198;-62
2022/02/12 08:17:46;;;;;;;0.50;0.50;;;;;;;;;;4993533;28;20647;-62
2022/02/12 08:20:12;;;;;;;0.60;0.60;;;;;;;;;;4992544;28;20214;-62
2022/02/12 08:22:38;;;;;;;0.60;0.60;;;;;;;;;;4993408;28;20531;-62
2022/02/12 08:25:04;;;;;;;0.60;0.60;;;;;;;;;;4992917;28;20340;-62
2022/02/12 08:27:30;;;;;;;0.60;0.60;;;;;;;;;;4992539;28;20510;-62
2022/02/12 08:29:57;;;;;;;0.50;0.50;;;;;;;;;;4992501;28;20174;-62
2022/02/12 08:32:23;;;;;;;0.70;0.70;;;;;;;;;;4993167;28;20561;-62
2022/02/12 08:34:50;;;;;;;0.52;0.52;;;;;;;;;;4992390;28;20688;-62
2022/02/12 08:37:16;;;;;;;0.50;0.50;;;;;;;;;;4993178;28;20235;-62
2022/02/12 08:39:42;;;;;;;0.60;0.60;;;;;;;;;;4993170;28;20178;-62
2022/02/12 08:42:08;;;;;;;0.50;0.50;;;;;;;;;;4992229;28;20650;-63
2022/02/12 08:44:34;;;;;;;0.50;0.50;;;;;;;;;;4992287;28;20469;-62
2022/02/12 08:47:00;;;;;;;0.70;0.70;;;;;;;;;;4991899;28;20174;-62
2022/02/12 08:49:26;;;;;;;0.60;0.60;;;;;;;;;;4983195;28;20270;-63
2022/02/12 08:51:53;;;;;;;0.60;0.60;;;;;;;;;;4990452;28;20266;-63
2022/02/12 08:54:19;;;;;;;0.50;0.50;;;;;;;;;;4992462;28;20820;-63
2022/02/12 08:56:45;;;;;;;0.60;0.60;;;;;;;;;;4992771;28;20214;-63
2022/02/12 08:59:12;;;;;;;0.50;0.50;;;;;;;;;;4992976;28;20206;-63
2022/02/12 09:01:40;;;;;;;0.40;0.40;;;;;;;;;;4992843;28;20578;-63
2022/02/12 09:04:06;;;;;;;0.60;0.60;;;;;;;;;;4992637;28;20272;-63
2022/02/12 09:06:32;;;;;;;0.60;0.60;;;;;;;;;;4991942;28;20212;-63
2022/02/12 09:09:01;;;;;;;0.50;0.50;;;;;;;;;;4991400;28;20175;-63
2022/02/12 09:11:27;;;;;;;0.50;0.50;;;;;;;;;;4992356;28;20218;-62
2022/02/12 09:13:53;;;;;;;0.55;0.55;;;;;;;;;;4991451;28;20672;-62
2022/02/12 09:16:20;;;;;;;0.50;0.50;;;;;;;;;;4996380;28;20544;-62
2022/02/12 09:18:48;;;;;;;0.50;0.50;;;;;;;;;;4992060;28;20557;-62
2022/02/12 09:21:14;;;;;;;0.60;0.60;;;;;;;;;;4991618;28;20194;-62
2022/02/12 09:23:40;;;;;;;0.50;0.50;;;;;;;;;;4990439;28;20546;-61
2022/02/12 09:26:06;;;;;;;0.60;0.60;;;;;;;;;;4991184;28;20195;-61
2022/02/12 09:28:32;;;;;;;0.50;0.50;;;;;;;;;;4991555;28;20429;-62
2022/02/12 09:30:58;;;;;;;0.47;0.47;;;;;;;;;;4992103;28;20483;-63
2022/02/12 09:33:24;;;;;;;0.60;0.60;;;;;;;;;;4992019;28;20276;-63
2022/02/12 09:35:53;;;;;;;0.50;0.50;;;;;;;;;;4991745;28;20327;-62
2022/02/12 09:38:23;;;;;;;0.50;0.50;;;;;;;;;;4992230;28;20464;-63
2022/02/12 09:40:49;;;;;;;0.50;0.50;;;;;;;;;;4992058;28;20689;-63
2022/02/12 09:43:15;;;;;;;0.40;0.40;;;;;;;;;;4989626;28;20574;-64
2022/02/12 09:45:50;;;;;;;0.50;0.50;;;;;;;;;;4992035;28;20206;-63
2022/02/12 09:48:16;;;;;;;0.40;0.40;;;;;;;;;;4990732;28;20406;-63
2022/02/12 09:50:42;;;;;;;0.50;0.50;;;;;;;;;;4991344;28;20419;-63
2022/02/12 09:53:08;;;;;;;0.40;0.40;;;;;;;;;;4992605;28;20415;-63
2022/02/12 09:55:35;;;;;;;0.40;0.40;;;;;;;;;;4991180;28;20314;-63
2022/02/12 09:58:02;;;;;;;0.40;0.40;;;;;;;;;;4991898;28;20457;-63
2022/02/12 10:00:28;;;;;;;0.40;0.40;;;;;;;;;;4991439;28;20553;-63
2022/02/12 10:02:54;;;;;;;0.40;0.40;;;;;;;;;;4991947;28;20185;-62
2022/02/12 10:05:27;;;;;;;0.50;0.50;;;;;;;;;;4992002;28;20267;-63
2022/02/12 10:08:02;;;;;;;0.50;0.50;;;;;;;;;;4991730;28;20178;-63
2022/02/12 10:10:29;;;;;;;0.50;0.50;;;;;;;;;;4991338;28;20613;-63
2022/02/12 10:13:15;;;;;;;0.40;0.40;;;;;;;;;;4991623;28;20182;-62
2022/02/12 10:15:42;;;;;;;0.50;0.50;;;;;;;;;;4991447;28;20198;-62
2022/02/12 10:18:08;;;;;;;0.50;0.50;;;;;;;;;;4992051;28;20229;-63
2022/02/12 10:20:36;;;;;;;0.50;0.50;;;;;;;;;;4991618;28;20253;-63
2022/02/12 10:23:08;;;;;;;0.50;0.50;;;;;;;;;;4991387;28;20182;-63
2022/02/12 10:25:35;;;;;;;0.50;0.50;;;;;;;;;;4991578;28;20220;-63
2022/02/12 10:28:01;;;;;;;0.50;0.50;;;;;;;;;;4992051;28;20178;-63
2022/02/12 10:30:28;;;;;;;0.50;0.50;;;;;;;;;;4991665;28;20241;-63
2022/02/12 10:33:04;;;;;;;0.60;0.60;;;;;;;;;;4992255;28;20424;-63
2022/02/12 10:35:30;;;;;;;0.40;0.40;;;;;;;;;;4992025;28;20592;-63
2022/02/12 10:38:00;;;;;;;0.60;0.60;;;;;;;;;;4992048;28;20261;-63
2022/02/12 10:40:26;;;;;;;0.50;0.50;;;;;;;;;;4991498;28;20182;-63
2022/02/12 10:42:53;;;;;;;0.50;0.50;;;;;;;;;;4991460;28;20201;-63
2022/02/12 10:45:19;;;;;;;0.50;0.50;;;;;;;;;;4991639;28;20221;-63
2022/02/12 10:47:46;;;;;;;0.50;0.50;;;;;;;;;;4991800;28;20183;-63
2022/02/12 10:50:12;;;;;;;0.50;0.50;;;;;;;;;;4990063;28;20268;-63
2022/02/12 10:52:40;;;;;;;0.50;0.50;;;;;;;;;;4991497;28;20181;-63
2022/02/12 10:55:06;;;;;;;0.50;0.50;;;;;;;;;;4991203;28;20605;-64
2022/02/12 10:57:38;;;;;;;0.40;0.40;;;;;;;;;;4991522;28;20185;-63
2022/02/12 11:00:05;;;;;;;0.40;0.40;;;;;;;;;;4991614;28;20186;-61
2022/02/12 11:02:31;;;;;;;0.40;0.40;;;;;;;;;;4991495;28;20562;-62
2022/02/12 11:04:57;;;;;;;0.40;0.40;;;;;;;;;;4989972;28;20214;-62
2022/02/12 11:07:24;;;;;;;0.47;0.47;;;;;;;;;;4991412;28;20188;-63
2022/02/12 11:09:50;;;;;;;0.40;0.40;;;;;;;;;;4993948;28;20237;-62
2022/02/12 11:12:16;;;;;;;0.40;0.40;;;;;;;;;;4994569;28;20413;-62
2022/02/12 11:14:43;;;;;;;0.40;0.40;;;;;;;;;;4994538;28;20201;-62
2022/02/12 11:17:11;;;;;;;0.40;0.40;;;;;;;;;;4994589;28;20444;-62
2022/02/12 11:19:38;;;;;;;0.40;0.40;;;;;;;;;;4994550;28;20915;-63
2022/02/12 11:22:04;;;;;;;0.40;0.40;;;;;;;;;;4994308;28;20388;-63
2022/02/12 11:24:34;;;;;;;0.30;0.30;;;;;;;;;;4994189;28;20516;-63
2022/02/12 11:27:00;;;;;;;0.40;0.40;;;;;;;;;;4994533;28;20417;-62
2022/02/12 11:29:33;;;;;;;0.40;0.40;;;;;;;;;;4994264;28;20790;-63
2022/02/12 11:32:08;;;;;;;0.40;0.40;;;;;;;;;;4994002;28;20380;-62
2022/02/12 11:34:34;;;;;;;0.40;0.40;;;;;;;;;;4994155;28;20840;-63
2022/02/12 11:37:17;;;;;;;0.40;0.40;;;;;;;;;;4994107;28;20406;-62
2022/02/12 11:40:02;;;;;;;0.40;0.40;;;;;;;;;;4994220;28;20437;-62
2022/02/12 11:42:55;;;;;;;0.40;0.40;;;;;;;;;;4994284;28;20805;-63
2022/02/12 11:45:29;;;;;;;0.30;0.30;;;;;;;;;;4992150;28;20515;-63
2022/02/12 11:48:14;;;;;;;0.30;0.30;;;;;;;;;;4994281;28;20892;-63
2022/02/12 11:50:41;;;;;;;0.30;0.30;;;;;;;;;;4993879;28;20417;-63
2022/02/12 11:53:27;;;;;;;0.40;0.40;;;;;;;;;;4993849;28;20754;-62
2022/02/12 11:55:53;;;;;;;0.40;0.40;;;;;;;;;;5033705;22;20999;-59
2022/02/12 11:58:42;;;;;;;0.40;0.40;;;;;;;;;;5013293;28;20420;-60
2022/02/12 12:01:29;;;;;;;0.40;0.40;;;;;;;;;;5005532;28;20499;-60
2022/02/12 12:04:05;;;;;;;0.40;0.40;;;;;;;;;;5013623;28;20422;-60
2022/02/12 12:06:33;;;;;;;0.40;0.40;;;;;;;;;;5013401;28;20554;-58
2022/02/12 12:09:06;;;;;;;0.30;0.30;;;;;;;;;;5013491;28;20491;-61
2022/02/12 12:11:32;;;;;;;0.40;0.40;;;;;;;;;;5013469;28;20195;-60
2022/02/12 12:14:02;;;;;;;0.40;0.40;;;;;;;;;;5013353;28;20382;-60
2022/02/12 12:16:33;;;;;;;0.40;0.40;;;;;;;;;;5013449;28;20466;-60
2022/02/12 12:19:01;;;;;;;0.40;0.40;;;;;;;;;;5013250;28;20533;-62
2022/02/12 12:21:29;;;;;;;0.40;0.40;;;;;;;;;;5013130;28;20772;-59
2022/02/12 12:23:59;;;;;;;0.40;0.40;;;;;;;;;;5010119;28;20543;-63
2022/02/12 12:26:41;;;;;;;0.40;0.40;;;;;;;;;;5013209;28;20541;-63
2022/02/12 12:31:52;;;;;;;0.40;0.40;;;;;;;;;;5013201;28;20463;-63
2022/02/12 12:34:18;;;;;;;0.40;0.40;;;;;;;;;;5011430;28;20413;-62
2022/02/12 12:36:45;;;;;;;0.40;0.40;;;;;;;;;;5012964;28;20422;-61
2022/02/12 12:39:11;;;;;;;0.40;0.40;;;;;;;;;;5013011;28;20421;-61
2022/02/12 12:41:39;;;;;;;0.40;0.40;;;;;;;;;;5012707;28;20598;-59
2022/02/12 12:44:18;;;;;;;0.50;0.50;;;;;;;;;;5011388;28;20482;-61
2022/02/12 12:46:52;;;;;;;0.40;0.40;;;;;;;;;;5012372;28;20429;-62
2022/02/12 12:49:26;;;;;;;0.40;0.40;;;;;;;;;;5012674;28;20430;-61
2022/02/12 12:51:52;;;;;;;0.40;0.40;;;;;;;;;;5011984;28;20401;-61
2022/02/12 12:54:27;;;;;;;0.40;0.40;;;;;;;;;;5010999;28;20539;-61
2022/02/12 12:56:53;;;;;;;0.40;0.40;;;;;;;;;;5012148;28;20958;-62
2022/02/12 12:59:21;;;;;;;0.40;0.40;;;;;;;;;;5012655;28;20845;-61
2022/02/12 13:01:59;;;;;;;0.40;0.40;;;;;;;;;;5012350;28;20204;-62
2022/02/12 13:04:25;;;;;;;0.40;0.40;;;;;;;;;;5012242;28;20596;-62
2022/02/12 13:06:52;;;;;;;0.40;0.40;;;;;;;;;;5012290;28;20252;-61
2022/02/12 13:09:19;;;;;;;0.50;0.50;;;;;;;;;;5011955;28;20181;-62
2022/02/12 13:11:45;;;;;;;0.50;0.50;;;;;;;;;;5012349;28;20257;-62
2022/02/12 13:14:11;;;;;;;0.40;0.40;;;;;;;;;;5012526;28;20284;-61
2022/02/12 13:16:38;;;;;;;0.40;0.40;;;;;;;;;;5012258;28;20415;-62
2022/02/12 13:19:05;;;;;;;0.40;0.40;;;;;;;;;;5011700;28;20197;-61
2022/02/12 13:21:31;;;;;;;0.50;0.50;;;;;;;;;;5011778;28;20591;-61
2022/02/12 13:24:04;;;;;;;0.40;0.40;;;;;;;;;;5012165;28;20177;-62
2022/02/12 13:26:31;;;;;;;0.50;0.50;;;;;;;;;;5011858;28;20336;-60
2022/02/12 13:28:57;;;;;;;0.40;0.40;;;;;;;;;;5011907;28;20177;-61
2022/02/12 13:31:26;;;;;;;0.50;0.50;;;;;;;;;;5010863;28;20181;-61
2022/02/12 13:34:02;;;;;;;0.40;0.40;;;;;;;;;;5011775;28;20235;-61
2022/02/12 13:36:28;;;;;;;0.40;0.40;;;;;;;;;;5012268;28;20515;-61
2022/02/12 13:39:04;;;;;;;0.50;0.50;;;;;;;;;;5012020;28;20214;-61
2022/02/12 13:41:30;;;;;;;0.50;0.50;;;;;;;;;;5011372;28;20404;-61
2022/02/12 13:43:56;;;;;;;0.50;0.50;;;;;;;;;;5011836;28;20177;-61
2022/02/12 13:46:22;;;;;;;0.50;0.50;;;;;;;;;;5011886;28;20198;-62
2022/02/12 13:48:48;;;;;;;0.50;0.50;;;;;;;;;;5011908;28;20413;-60
2022/02/12 13:51:16;;;;;;;0.50;0.50;;;;;;;;;;5011265;28;20169;-59
2022/02/12 13:53:48;;;;;;;0.50;0.50;;;;;;;;;;5011444;28;20237;-59
2022/02/12 13:56:14;;;;;;;0.50;0.50;;;;;;;;;;5011443;28;20267;-60
2022/02/12 13:58:41;;;;;;;0.50;0.50;;;;;;;;;;5011604;28;20177;-61
2022/02/12 14:01:08;;;;;;;0.50;0.50;;;;;;;;;;5011184;28;20170;-61
2022/02/12 14:03:38;;;;;;;0.50;0.50;;;;;;;;;;5011046;28;20174;-62
2022/02/12 14:06:22;;;;;;;0.50;0.50;;;;;;;;;;5011448;28;20704;-62
2022/02/12 14:08:48;;;;;;;0.50;0.50;;;;;;;;;;5011762;28;20204;-61
2022/02/12 14:11:15;;;;;;;0.50;0.50;;;;;;;;;;5011231;28;20173;-61
2022/02/12 14:13:41;;;;;;;0.50;0.50;;;;;;;;;;5011528;28;20200;-60
2022/02/12 14:16:07;;;;;;;0.50;0.50;;;;;;;;;;5012589;28;20197;-61
2022/02/12 14:18:33;;;;;;;0.50;0.50;;;;;;;;;;5010979;28;20273;-58
2022/02/12 14:20:59;;;;;;;0.53;0.53;;;;;;;;;;5011273;28;20253;-59
2022/02/12 14:23:25;;;;;;;0.50;0.50;;;;;;;;;;5011444;28;20423;-56
2022/02/12 14:25:51;;;;;;;0.45;0.45;;;;;;;;;;5010746;28;20280;-60
2022/02/12 14:28:17;;;;;;;0.50;0.50;;;;;;;;;;5011075;28;20205;-57
2022/02/12 14:30:44;;;;;;;0.50;0.50;;;;;;;;;;5011083;28;20407;-61
2022/02/12 14:33:10;;;;;;;0.50;0.50;;;;;;;;;;5011068;28;20547;-60
2022/02/12 14:35:37;;;;;;;0.60;0.60;;;;;;;;;;5011545;28;20695;-61
2022/02/12 14:38:03;;;;;;;0.50;0.50;;;;;;;;;;5010843;28;20312;-60
2022/02/12 14:40:29;;;;;;;0.50;0.50;;;;;;;;;;5011321;28;20224;-61
2022/02/12 14:42:55;;;;;;;0.50;0.50;;;;;;;;;;5010968;28;20447;-61
2022/02/12 14:45:21;;;;;;;0.50;0.50;;;;;;;;;;5014863;28;20276;-61
2022/02/12 14:47:47;;;;;;;0.50;0.50;;;;;;;;;;5014458;28;20423;-61
2022/02/12 14:50:14;;;;;;;0.50;0.50;;;;;;;;;;5013046;28;20182;-61
2022/02/12 14:52:40;;;;;;;0.55;0.55;;;;;;;;;;5014731;28;20415;-62
2022/02/12 14:55:06;;;;;;;0.50;0.50;;;;;;;;;;5014866;28;20764;-62
2022/02/12 14:57:34;;;;;;;0.50;0.50;;;;;;;;;;5015080;28;20192;-61
2022/02/12 15:00:00;;;;;;;0.45;0.45;;;;;;;;;;5013908;28;20584;-56
2022/02/12 15:02:25;;;;;;;0.50;0.50;;;;;;;;;;5014358;28;20182;-58
2022/02/12 15:04:52;;;;;;;0.50;0.50;;;;;;;;;;5013907;28;20456;-61
2022/02/12 15:07:18;;;;;;;0.50;0.50;;;;;;;;;;5014518;28;20456;-62
2022/02/12 15:09:44;;;;;;;0.40;0.40;;;;;;;;;;5012715;28;20173;-61
2022/02/12 15:12:11;;;;;;;0.43;0.43;;;;;;;;;;5013798;28;20188;-61
2022/02/12 15:14:37;;;;;;;0.50;0.50;;;;;;;;;;5014148;28;20196;-62
2022/02/12 15:17:03;;;;;;;0.50;0.50;;;;;;;;;;5014133;28;20231;-61